sensor_id;sensor_type;location;lat;lon;timestamp;pressure;altitude;pressure_sealevel;temperature;humidity
69257;BME280;56376;53.356;-1.748;2023-04-01T00:00:24;97960.00;;;7.15;100.00
69257;BME280;56376;53.356;-1.748;2023-04-01T00:02:49;97961.91;;;7.12;100.00
69257;BME280;56376;53.356;-1.748;2023-04-01T00:05:15;97964.56;;;7.10;100.00
69257;BME280;56376;53.356;-1.748;2023-04-01T00:07:42;97970.63;;;7.11;100.00
69257;BME280;56376;53.356;-1.748;2023-04-01T00:10:10;97964.56;;;7.10;100.00
69257;BME280;56376;53.356;-1.748;2023-04-01T00:12:35;97974.91;;;7.12;100.00
69257;BME280;56376;53.356;-1.748;2023-04-01T00:15:02;97984.25;;;7.16;100.00
69257;BME280;56376;53.356;-1.748;2023-04-01T00:17:28;97972.16;;;7.15;100.00
69257;BME280;56376;53.356;-1.748;2023-04-01T00:19:56;97971.25;;;7.16;100.00
69257;BME280;56376;53.356;-1.748;2023-04-01T00:22:23;97986.22;;;7.11;100.00
69257;BME280;56376;53.356;-1.748;2023-04-01T00:24:49;97986.22;;;7.11;100.00
69257;BME280;56376;53.356;-1.748;2023-04-01T00:27:14;97993.28;;;7.07;100.00
69257;BME280;56376;53.356;-1.748;2023-04-01T00:29:46;97993.44;;;7.04;100.00
69257;BME280;56376;53.356;-1.748;2023-04-01T00:32:13;97985.59;;;7.06;100.00
69257;BME280;56376;53.356;-1.748;2023-04-01T00:34:39;97989.06;;;7.05;100.00
69257;BME280;56376;53.356;-1.748;2023-04-01T00:37:06;97996.72;;;7.08;100.00
69257;BME280;56376;53.356;-1.748;2023-04-01T00:39:32;97998.41;;;7.09;100.00
69257;BME280;56376;53.356;-1.748;2023-04-01T00:41:59;97989.69;;;7.10;100.00
69257;BME280;56376;53.356;-1.748;2023-04-01T00:44:28;98001.00;;;7.09;100.00
69257;BME280;56376;53.356;-1.748;2023-04-01T00:46:55;98004.75;;;7.03;100.00
69257;BME280;56376;53.356;-1.748;2023-04-01T00:49:24;98005.56;;;7.04;100.00
69257;BME280;56376;53.356;-1.748;2023-04-01T00:51:53;98007.25;;;7.05;100.00
69257;BME280;56376;53.356;-1.748;2023-04-01T00:54:21;97993.44;;;7.04;100.00
69257;BME280;56376;53.356;-1.748;2023-04-01T00:56:55;98008.09;;;7.05;100.00
69257;BME280;56376;53.356;-1.748;2023-04-01T00:59:32;98012.38;;;7.06;100.00
69257;BME280;56376;53.356;-1.748;2023-04-01T01:02:00;98024.53;;;7.06;100.00
69257;BME280;56376;53.356;-1.748;2023-04-01T01:04:27;98021.06;;;7.05;100.00
69257;BME280;56376;53.356;-1.748;2023-04-01T01:12:18;98027.31;;;7.01;100.00
69257;BME280;56376;53.356;-1.748;2023-04-01T01:18:02;98023.13;;;6.99;100.00
69257;BME280;56376;53.356;-1.748;2023-04-01T01:24:10;98027.72;;;6.92;100.00
69257;BME280;56376;53.356;-1.748;2023-04-01T01:27:07;98030.47;;;6.89;100.00
69257;BME280;56376;53.356;-1.748;2023-04-01T01:35:26;98041.78;;;6.88;100.00
69257;BME280;56376;53.356;-1.748;2023-04-01T01:37:59;98049.56;;;6.88;100.00
69257;BME280;56376;53.356;-1.748;2023-04-01T01:40:27;98056.38;;;6.90;100.00
69257;BME280;56376;53.356;-1.748;2023-04-01T01:42:57;98058.06;;;6.91;100.00
69257;BME280;56376;53.356;-1.748;2023-04-01T01:45:25;98065.69;;;6.94;100.00
69257;BME280;56376;53.356;-1.748;2023-04-01T01:47:52;98057.13;;;6.92;100.00
69257;BME280;56376;53.356;-1.748;2023-04-01T01:50:19;98060.78;;;6.88;100.00
69257;BME280;56376;53.356;-1.748;2023-04-01T01:52:46;98070.19;;;6.91;100.00
69257;BME280;56376;53.356;-1.748;2023-04-01T01:55:31;98070.09;;;6.92;100.00
69257;BME280;56376;53.356;-1.748;2023-04-01T01:58:27;98068.38;;;6.93;100.00
69257;BME280;56376;53.356;-1.748;2023-04-01T02:00:58;98065.78;;;6.93;100.00
69257;BME280;56376;53.356;-1.748;2023-04-01T02:03:27;98058.09;;;6.90;100.00
69257;BME280;56376;53.356;-1.748;2023-04-01T02:05:56;98061.19;;;6.79;100.00
69257;BME280;56376;53.356;-1.748;2023-04-01T02:08:30;98064.06;;;6.73;100.00
69257;BME280;56376;53.356;-1.748;2023-04-01T02:11:03;98069.50;;;6.67;100.00
69257;BME280;56376;53.356;-1.748;2023-04-01T02:13:58;98075.88;;;6.60;100.00
69257;BME280;56376;53.356;-1.748;2023-04-01T02:19:25;98080.50;;;6.53;100.00
69257;BME280;56376;53.356;-1.748;2023-04-01T02:21:56;98072.72;;;6.53;100.00
69257;BME280;56376;53.356;-1.748;2023-04-01T02:24:23;98079.56;;;6.54;100.00
69257;BME280;56376;53.356;-1.748;2023-04-01T02:26:51;98098.84;;;6.48;100.00
69257;BME280;56376;53.356;-1.748;2023-04-01T02:29:19;98085.88;;;6.48;100.00
69257;BME280;56376;53.356;-1.748;2023-04-01T02:31:45;98100.47;;;6.51;100.00
69257;BME280;56376;53.356;-1.748;2023-04-01T02:34:11;98095.19;;;6.53;100.00
69257;BME280;56376;53.356;-1.748;2023-04-01T02:36:37;98096.06;;;6.53;100.00
69257;BME280;56376;53.356;-1.748;2023-04-01T02:39:04;98103.19;;;6.48;100.00
69257;BME280;56376;53.356;-1.748;2023-04-01T02:41:30;98100.72;;;6.45;100.00
69257;BME280;56376;53.356;-1.748;2023-04-01T02:43:56;98099.75;;;6.47;100.00
69257;BME280;56376;53.356;-1.748;2023-04-01T02:46:24;98102.56;;;6.43;100.00
69257;BME280;56376;53.356;-1.748;2023-04-01T02:48:49;98102.56;;;6.43;100.00
69257;BME280;56376;53.356;-1.748;2023-04-01T02:51:15;98095.16;;;6.34;100.00
69257;BME280;56376;53.356;-1.748;2023-04-01T02:53:40;98096.50;;;6.22;100.00
69257;BME280;56376;53.356;-1.748;2023-04-01T02:56:05;98100.19;;;6.16;100.00
69257;BME280;56376;53.356;-1.748;2023-04-01T02:58:31;98100.84;;;6.21;100.00
69257;BME280;56376;53.356;-1.748;2023-04-01T03:00:56;98113.81;;;6.21;100.00
69257;BME280;56376;53.356;-1.748;2023-04-01T03:03:22;98099.28;;;6.17;100.00
69257;BME280;56376;53.356;-1.748;2023-04-01T03:05:47;98106.16;;;6.18;100.00
69257;BME280;56376;53.356;-1.748;2023-04-01T03:08:12;98112.78;;;6.25;100.00
69257;BME280;56376;53.356;-1.748;2023-04-01T03:10:38;98113.56;;;6.27;100.00
69257;BME280;56376;53.356;-1.748;2023-04-01T03:13:03;98118.53;;;6.32;100.00
69257;BME280;56376;53.356;-1.748;2023-04-01T03:15:29;98115.94;;;6.32;100.00
69257;BME280;56376;53.356;-1.748;2023-04-01T03:17:54;98122.19;;;6.28;100.00
69257;BME280;56376;53.356;-1.748;2023-04-01T03:20:20;98116.25;;;6.24;100.00
69257;BME280;56376;53.356;-1.748;2023-04-01T03:22:45;98129.31;;;6.23;100.00
69257;BME280;56376;53.356;-1.748;2023-04-01T03:25:12;98119.97;;;6.19;100.00
69257;BME280;56376;53.356;-1.748;2023-04-01T03:27:37;98125.28;;;6.16;100.00
69257;BME280;56376;53.356;-1.748;2023-04-01T03:30:04;98126.06;;;6.18;100.00
69257;BME280;56376;53.356;-1.748;2023-04-01T03:32:30;98139.13;;;6.15;100.00
69257;BME280;56376;53.356;-1.748;2023-04-01T03:34:55;98143.44;;;6.16;100.00
69257;BME280;56376;53.356;-1.748;2023-04-01T03:37:22;98142.63;;;6.14;100.00
69257;BME280;56376;53.356;-1.748;2023-04-01T03:39:47;98145.22;;;6.14;100.00
69257;BME280;56376;53.356;-1.748;2023-04-01T03:42:13;98141.84;;;6.12;100.00
69257;BME280;56376;53.356;-1.748;2023-04-01T03:44:38;98158.50;;;6.06;100.00
69257;BME280;56376;53.356;-1.748;2023-04-01T03:47:04;98152.78;;;5.98;100.00
69257;BME280;56376;53.356;-1.748;2023-04-01T03:49:29;98155.66;;;5.90;100.00
69257;BME280;56376;53.356;-1.748;2023-04-01T03:51:57;98168.47;;;5.93;100.00
69257;BME280;56376;53.356;-1.748;2023-04-01T03:54:22;98169.31;;;5.95;100.00
69257;BME280;56376;53.356;-1.748;2023-04-01T03:56:48;98170.38;;;5.90;100.00
69257;BME280;56376;53.356;-1.748;2023-04-01T03:59:13;98169.63;;;5.86;100.00
69257;BME280;56376;53.356;-1.748;2023-04-01T04:01:39;98171.38;;;5.85;100.00
69257;BME280;56376;53.356;-1.748;2023-04-01T04:04:04;98171.41;;;5.84;100.00
69257;BME280;56376;53.356;-1.748;2023-04-01T04:06:30;98180.81;;;5.86;100.00
69257;BME280;56376;53.356;-1.748;2023-04-01T04:08:55;98174.69;;;5.89;100.00
69257;BME280;56376;53.356;-1.748;2023-04-01T04:11:22;98181.63;;;5.89;100.00
69257;BME280;56376;53.356;-1.748;2023-04-01T04:13:47;98190.47;;;5.83;100.00
69257;BME280;56376;53.356;-1.748;2023-04-01T04:16:13;98189.72;;;5.79;100.00
69257;BME280;56376;53.356;-1.748;2023-04-01T04:18:39;98189.00;;;5.76;100.00
69257;BME280;56376;53.356;-1.748;2023-04-01T04:21:05;98180.41;;;5.75;100.00
69257;BME280;56376;53.356;-1.748;2023-04-01T04:23:31;98183.72;;;5.79;100.00
69257;BME280;56376;53.356;-1.748;2023-04-01T04:26:04;98176.78;;;5.79;100.00
69257;BME280;56376;53.356;-1.748;2023-04-01T04:28:30;98194.91;;;5.79;100.00
69257;BME280;56376;53.356;-1.748;2023-04-01T04:30:56;98188.97;;;5.77;100.00
69257;BME280;56376;53.356;-1.748;2023-04-01T04:33:22;98204.53;;;5.77;100.00
69257;BME280;56376;53.356;-1.748;2023-04-01T04:35:48;98207.31;;;5.71;100.00
69257;BME280;56376;53.356;-1.748;2023-04-01T04:38:13;98200.28;;;5.75;100.00
69257;BME280;56376;53.356;-1.748;2023-04-01T04:40:40;98209.06;;;5.71;100.00
69257;BME280;56376;53.356;-1.748;2023-04-01T04:43:05;98208.25;;;5.70;100.00
69257;BME280;56376;53.356;-1.748;2023-04-01T04:45:32;98200.50;;;5.69;100.00
69257;BME280;56376;53.356;-1.748;2023-04-01T04:47:57;98209.91;;;5.71;100.00
69257;BME280;56376;53.356;-1.748;2023-04-01T04:50:24;98216.19;;;5.66;100.00
69257;BME280;56376;53.356;-1.748;2023-04-01T04:52:50;98217.81;;;5.68;100.00
69257;BME280;56376;53.356;-1.748;2023-04-01T04:55:15;98229.13;;;5.66;100.00
69257;BME280;56376;53.356;-1.748;2023-04-01T04:57:41;98232.56;;;5.66;100.00
69257;BME280;56376;53.356;-1.748;2023-04-01T05:00:07;98232.84;;;5.58;100.00
69257;BME280;56376;53.356;-1.748;2023-04-01T05:02:33;98237.06;;;5.61;100.00
69257;BME280;56376;53.356;-1.748;2023-04-01T05:04:58;98245.78;;;5.58;100.00
69257;BME280;56376;53.356;-1.748;2023-04-01T05:07:23;98242.47;;;5.55;100.00
69257;BME280;56376;53.356;-1.748;2023-04-01T05:09:49;98250.47;;;5.49;100.00
69257;BME280;56376;53.356;-1.748;2023-04-01T05:12:15;98253.06;;;5.49;100.00
69257;BME280;56376;53.356;-1.748;2023-04-01T05:14:40;98252.44;;;5.42;100.00
69257;BME280;56376;53.356;-1.748;2023-04-01T05:17:09;98261.16;;;5.39;100.00
69257;BME280;56376;53.356;-1.748;2023-04-01T05:19:35;98262.88;;;5.39;100.00
69257;BME280;56376;53.356;-1.748;2023-04-01T05:22:01;98271.53;;;5.39;100.00
69257;BME280;56376;53.356;-1.748;2023-04-01T05:24:26;98278.50;;;5.37;100.00
69257;BME280;56376;53.356;-1.748;2023-04-01T05:26:51;98281.88;;;5.39;100.00
69257;BME280;56376;53.356;-1.748;2023-04-01T05:29:17;98280.28;;;5.35;100.00
69257;BME280;56376;53.356;-1.748;2023-04-01T05:31:42;98291.50;;;5.36;100.00
69257;BME280;56376;53.356;-1.748;2023-04-01T05:34:08;98294.06;;;5.36;100.00
69257;BME280;56376;53.356;-1.748;2023-04-01T05:36:33;98293.28;;;5.34;100.00
69257;BME280;56376;53.356;-1.748;2023-04-01T05:38:59;98299.41;;;5.31;100.00
69257;BME280;56376;53.356;-1.748;2023-04-01T05:41:24;98303.63;;;5.34;100.00
69257;BME280;56376;53.356;-1.748;2023-04-01T05:43:50;98308.66;;;5.38;100.00
69257;BME280;56376;53.356;-1.748;2023-04-01T05:46:16;98317.28;;;5.39;100.00
69257;BME280;56376;53.356;-1.748;2023-04-01T05:48:41;98314.69;;;5.39;100.00
69257;BME280;56376;53.356;-1.748;2023-04-01T05:51:13;98320.63;;;5.42;100.00
69257;BME280;56376;53.356;-1.748;2023-04-01T05:53:38;98321.47;;;5.43;100.00
69257;BME280;56376;53.356;-1.748;2023-04-01T05:56:04;98318.06;;;5.41;100.00
69257;BME280;56376;53.356;-1.748;2023-04-01T05:58:30;98318.97;;;5.40;100.00
69257;BME280;56376;53.356;-1.748;2023-04-01T06:01:07;98328.50;;;5.39;100.00
69257;BME280;56376;53.356;-1.748;2023-04-01T06:03:33;98334.44;;;5.41;100.00
69257;BME280;56376;53.356;-1.748;2023-04-01T06:05:59;98335.41;;;5.39;100.00
69257;BME280;56376;53.356;-1.748;2023-04-01T06:08:26;98335.50;;;5.36;100.00
69257;BME280;56376;53.356;-1.748;2023-04-01T06:19:30;98344.06;;;5.38;100.00
69257;BME280;56376;53.356;-1.748;2023-04-01T06:25:30;98350.94;;;5.39;100.00
69257;BME280;56376;53.356;-1.748;2023-04-01T06:30:57;98349.94;;;5.43;100.00
69257;BME280;56376;53.356;-1.748;2023-04-01T06:36:39;98367.22;;;5.42;100.00
69257;BME280;56376;53.356;-1.748;2023-04-01T06:53:19;98392.38;;;5.64;100.00
69257;BME280;56376;53.356;-1.748;2023-04-01T06:55:57;98388.22;;;5.60;100.00
69257;BME280;56376;53.356;-1.748;2023-04-01T06:58:29;98405.25;;;5.67;100.00
69257;BME280;56376;53.356;-1.748;2023-04-01T07:01:02;98398.31;;;5.68;100.00
69257;BME280;56376;53.356;-1.748;2023-04-01T07:03:44;98400.97;;;5.66;100.00
69257;BME280;56376;53.356;-1.748;2023-04-01T07:06:27;98396.63;;;5.67;100.00
69257;BME280;56376;53.356;-1.748;2023-04-01T07:08:55;98401.75;;;5.68;100.00
69257;BME280;56376;53.356;-1.748;2023-04-01T07:11:29;98405.94;;;5.72;100.00
69257;BME280;56376;53.356;-1.748;2023-04-01T07:14:11;98411.00;;;5.75;100.00
69257;BME280;56376;53.356;-1.748;2023-04-01T07:16:43;98424.59;;;5.82;100.00
69257;BME280;56376;53.356;-1.748;2023-04-01T07:19:20;98429.53;;;5.90;100.00
69257;BME280;56376;53.356;-1.748;2023-04-01T07:21:49;98434.53;;;5.96;100.00
69257;BME280;56376;53.356;-1.748;2023-04-01T07:24:23;98434.53;;;5.96;100.00
69257;BME280;56376;53.356;-1.748;2023-04-01T07:26:54;98437.13;;;5.96;100.00
69257;BME280;56376;53.356;-1.748;2023-04-01T07:29:21;98437.84;;;5.99;100.00
69257;BME280;56376;53.356;-1.748;2023-04-01T07:32:22;98441.34;;;5.98;100.00
69257;BME280;56376;53.356;-1.748;2023-04-01T07:40:35;98443.81;;;6.01;100.00
69257;BME280;56376;53.356;-1.748;2023-04-01T07:43:21;98451.47;;;6.04;100.00
69257;BME280;56376;53.356;-1.748;2023-04-01T07:46:05;98460.81;;;6.10;100.00
69257;BME280;56376;53.356;-1.748;2023-04-01T07:48:51;98466.00;;;6.10;100.00
69257;BME280;56376;53.356;-1.748;2023-04-01T07:51:40;98468.41;;;6.15;100.00
69257;BME280;56376;53.356;-1.748;2023-04-01T07:54:26;98469.28;;;6.15;100.00
69257;BME280;56376;53.356;-1.748;2023-04-01T07:57:29;98473.50;;;6.18;100.00
69257;BME280;56376;53.356;-1.748;2023-04-01T08:05:27;98475.31;;;6.16;100.00
69257;BME280;56376;53.356;-1.748;2023-04-01T08:16:00;98486.78;;;6.09;100.00
69257;BME280;56376;53.356;-1.748;2023-04-01T08:21:42;98499.97;;;6.02;100.00
69257;BME280;56376;53.356;-1.748;2023-04-01T08:24:40;98505.22;;;5.99;100.00
69257;BME280;56376;53.356;-1.748;2023-04-01T08:27:53;98506.03;;;6.01;100.00
69257;BME280;56376;53.356;-1.748;2023-04-01T08:30:06;98521.44;;;6.06;100.00
69257;BME280;56376;53.356;-1.748;2023-04-01T08:32:41;98527.53;;;6.05;100.00
69257;BME280;56376;53.356;-1.748;2023-04-01T08:37:55;98525.69;;;6.09;100.00
69257;BME280;56376;53.356;-1.748;2023-04-01T08:40:39;98534.19;;;6.12;100.00
69257;BME280;56376;53.356;-1.748;2023-04-01T08:57:06;98564.53;;;6.10;100.00
69257;BME280;56376;53.356;-1.748;2023-04-01T09:11:13;98582.09;;;6.27;100.00
69257;BME280;56376;53.356;-1.748;2023-04-01T09:35:24;98584.50;;;7.29;100.00
69257;BME280;56376;53.356;-1.748;2023-04-01T09:38:20;98584.47;;;7.52;100.00
69257;BME280;56376;53.356;-1.748;2023-04-01T09:51:56;98598.16;;;7.34;100.00
69257;BME280;56376;53.356;-1.748;2023-04-01T10:12:06;98636.59;;;7.71;100.00
69257;BME280;56376;53.356;-1.748;2023-04-01T10:20:17;98649.97;;;7.61;100.00
69257;BME280;56376;53.356;-1.748;2023-04-01T10:30:59;98676.94;;;7.58;100.00
69257;BME280;56376;53.356;-1.748;2023-04-01T10:45:09;98687.56;;;7.52;100.00
69257;BME280;56376;53.356;-1.748;2023-04-01T11:07:26;98714.69;;;7.45;100.00
69257;BME280;56376;53.356;-1.748;2023-04-01T11:12:44;98719.53;;;7.54;100.00
69257;BME280;56376;53.356;-1.748;2023-04-01T11:29:34;98754.28;;;7.51;100.00
69257;BME280;56376;53.356;-1.748;2023-04-01T11:40:45;98772.81;;;7.42;100.00
69257;BME280;56376;53.356;-1.748;2023-04-01T11:43:49;98771.03;;;7.43;100.00
69257;BME280;56376;53.356;-1.748;2023-04-01T11:46:27;98774.44;;;7.45;100.00
69257;BME280;56376;53.356;-1.748;2023-04-01T12:02:25;98794.94;;;7.52;100.00
69257;BME280;56376;53.356;-1.748;2023-04-01T12:10:50;98805.19;;;7.57;100.00
69257;BME280;56376;53.356;-1.748;2023-04-01T12:13:31;98813.00;;;7.57;100.00
69257;BME280;56376;53.356;-1.748;2023-04-01T12:45:58;98849.22;;;7.62;100.00
69257;BME280;56376;53.356;-1.748;2023-04-01T12:51:41;98855.31;;;7.61;100.00
69257;BME280;56376;53.356;-1.748;2023-04-01T12:54:37;98863.16;;;7.59;100.00
69257;BME280;56376;53.356;-1.748;2023-04-01T13:00:00;98880.56;;;7.57;100.00
69257;BME280;56376;53.356;-1.748;2023-04-01T13:16:05;98891.66;;;7.62;100.00
69257;BME280;56376;53.356;-1.748;2023-04-01T13:18:55;98897.50;;;7.69;100.00
69257;BME280;56376;53.356;-1.748;2023-04-01T13:37:46;98915.16;;;7.84;100.00
69257;BME280;56376;53.356;-1.748;2023-04-01T13:51:18;98945.41;;;7.87;100.00
69257;BME280;56376;53.356;-1.748;2023-04-01T13:54:19;98948.34;;;7.76;100.00
69257;BME280;56376;53.356;-1.748;2023-04-01T14:10:31;98967.25;;;7.81;100.00
69257;BME280;56376;53.356;-1.748;2023-04-01T14:13:22;98972.25;;;7.87;100.00
69257;BME280;56376;53.356;-1.748;2023-04-01T14:21:27;98980.53;;;7.98;100.00
69257;BME280;56376;53.356;-1.748;2023-04-01T14:24:09;98987.31;;;8.02;100.00
69257;BME280;56376;53.356;-1.748;2023-04-01T14:32:07;98995.66;;;8.12;100.00
69257;BME280;56376;53.356;-1.748;2023-04-01T14:35:09;98997.34;;;8.13;100.00
69257;BME280;56376;53.356;-1.748;2023-04-01T14:40:55;99004.13;;;8.19;100.00
69257;BME280;56376;53.356;-1.748;2023-04-01T14:49:04;99024.28;;;8.12;100.00
69257;BME280;56376;53.356;-1.748;2023-04-01T14:51:40;99030.44;;;8.10;100.00
69257;BME280;56376;53.356;-1.748;2023-04-01T14:54:08;99033.84;;;8.12;100.00
69257;BME280;56376;53.356;-1.748;2023-04-01T14:56:41;99037.28;;;8.12;100.00
69257;BME280;56376;53.356;-1.748;2023-04-01T15:04:41;99046.50;;;8.21;100.00
69257;BME280;56376;53.356;-1.748;2023-04-01T15:09:53;99047.38;;;8.21;100.00
69257;BME280;56376;53.356;-1.748;2023-04-01T15:12:25;99052.59;;;8.21;100.00
69257;BME280;56376;53.356;-1.748;2023-04-01T15:17:45;99056.66;;;8.29;100.00
69257;BME280;56376;53.356;-1.748;2023-04-01T15:20:30;99059.19;;;8.32;100.00
69257;BME280;56376;53.356;-1.748;2023-04-01T15:31:31;99094.13;;;8.24;100.00
69257;BME280;56376;53.356;-1.748;2023-04-01T15:37:15;99103.72;;;8.22;100.00
69257;BME280;56376;53.356;-1.748;2023-04-01T15:39:57;99105.47;;;8.22;100.00
69257;BME280;56376;53.356;-1.748;2023-04-01T15:48:06;99128.03;;;8.21;100.00
69257;BME280;56376;53.356;-1.748;2023-04-01T15:50:55;99130.66;;;8.21;100.00
69257;BME280;56376;53.356;-1.748;2023-04-01T15:53:53;99133.25;;;8.21;100.00
69257;BME280;56376;53.356;-1.748;2023-04-01T16:02:22;99149.81;;;8.19;100.00
69257;BME280;56376;53.356;-1.748;2023-04-01T16:07:59;99162.19;;;8.11;100.00
69257;BME280;56376;53.356;-1.748;2023-04-01T16:10:44;99170.94;;;8.08;100.00
69257;BME280;56376;53.356;-1.748;2023-04-01T16:13:25;99175.34;;;8.06;100.00
69257;BME280;56376;53.356;-1.748;2023-04-01T16:23:46;99192.25;;;7.93;100.00
69257;BME280;56376;53.356;-1.748;2023-04-01T16:26:24;99205.34;;;7.90;100.00
69257;BME280;56376;53.356;-1.748;2023-04-01T16:28:56;99212.22;;;7.91;100.00
69257;BME280;56376;53.356;-1.748;2023-04-01T16:34:30;99215.66;;;7.93;100.00
69257;BME280;56376;53.356;-1.748;2023-04-01T16:37:05;99222.47;;;7.97;100.00
69257;BME280;56376;53.356;-1.748;2023-04-01T16:44:55;99227.06;;;7.89;100.00
69257;BME280;56376;53.356;-1.748;2023-04-01T16:47:30;99226.16;;;7.90;100.00
69257;BME280;56376;53.356;-1.748;2023-04-01T16:50:20;99231.50;;;7.84;100.00
69257;BME280;56376;53.356;-1.748;2023-04-01T16:55:49;99239.19;;;7.88;100.00
69257;BME280;56376;53.356;-1.748;2023-04-01T16:58:35;99246.47;;;7.77;100.00
69257;BME280;56376;53.356;-1.748;2023-04-01T17:01:11;99253.47;;;7.73;100.00
69257;BME280;56376;53.356;-1.748;2023-04-01T17:03:43;99256.28;;;7.67;100.00
69257;BME280;56376;53.356;-1.748;2023-04-01T17:11:44;99268.38;;;7.68;100.00
69257;BME280;56376;53.356;-1.748;2023-04-01T17:14:29;99275.28;;;7.69;100.00
69257;BME280;56376;53.356;-1.748;2023-04-01T17:17:48;99279.53;;;7.72;100.00
69257;BME280;56376;53.356;-1.748;2023-04-01T17:20:24;99280.41;;;7.72;100.00
69257;BME280;56376;53.356;-1.748;2023-04-01T17:23:09;99287.38;;;7.70;100.00
69257;BME280;56376;53.356;-1.748;2023-04-01T17:28:46;99300.47;;;7.67;100.00
69257;BME280;56376;53.356;-1.748;2023-04-01T17:48:15;99342.97;;;7.66;100.00
69257;BME280;56376;53.356;-1.748;2023-04-01T17:50:49;99352.56;;;7.64;100.00
69257;BME280;56376;53.356;-1.748;2023-04-01T18:02:03;99370.06;;;7.57;100.00
69257;BME280;56376;53.356;-1.748;2023-04-01T18:07:56;99385.66;;;7.57;100.00
69257;BME280;56376;53.356;-1.748;2023-04-01T18:10:41;99381.28;;;7.58;100.00
69257;BME280;56376;53.356;-1.748;2023-04-01T18:13:39;99393.41;;;7.59;100.00
69257;BME280;56376;53.356;-1.748;2023-04-01T18:16:26;99389.06;;;7.59;100.00
69257;BME280;56376;53.356;-1.748;2023-04-01T18:19:01;99396.09;;;7.56;100.00
69257;BME280;56376;53.356;-1.748;2023-04-01T18:21:50;99407.47;;;7.52;100.00
69257;BME280;56376;53.356;-1.748;2023-04-01T18:24:21;99414.44;;;7.50;100.00
69257;BME280;56376;53.356;-1.748;2023-04-01T18:27:06;99425.69;;;7.50;100.00
69257;BME280;56376;53.356;-1.748;2023-04-01T18:29:46;99424.06;;;7.46;100.00
69257;BME280;56376;53.356;-1.748;2023-04-01T18:35:14;99448.09;;;7.56;100.00
69257;BME280;56376;53.356;-1.748;2023-04-01T18:40:35;99457.66;;;7.54;100.00
69257;BME280;56376;53.356;-1.748;2023-04-01T18:45:40;99476.00;;;7.48;100.00
69257;BME280;56376;53.356;-1.748;2023-04-01T18:50:38;99480.44;;;7.43;100.00
69257;BME280;56376;53.356;-1.748;2023-04-01T18:53:12;99480.44;;;7.43;100.00
69257;BME280;56376;53.356;-1.748;2023-04-01T18:56:03;99483.91;;;7.43;100.00
69257;BME280;56376;53.356;-1.748;2023-04-01T18:58:46;99491.69;;;7.43;100.00
69257;BME280;56376;53.356;-1.748;2023-04-01T19:01:23;99493.41;;;7.44;100.00
69257;BME280;56376;53.356;-1.748;2023-04-01T19:06:50;99509.09;;;7.41;100.00
69257;BME280;56376;53.356;-1.748;2023-04-01T19:09:32;99507.38;;;7.40;100.00
69257;BME280;56376;53.356;-1.748;2023-04-01T19:18:43;99526.41;;;7.41;100.00
69257;BME280;56376;53.356;-1.748;2023-04-01T19:30:05;99548.19;;;7.36;100.00
69257;BME280;56376;53.356;-1.748;2023-04-01T19:43:54;99572.56;;;7.31;100.00
69257;BME280;56376;53.356;-1.748;2023-04-01T19:50:00;99581.31;;;7.25;100.00
69257;BME280;56376;53.356;-1.748;2023-04-01T19:55:02;99593.53;;;7.22;100.00
69257;BME280;56376;53.356;-1.748;2023-04-01T20:05:33;99615.25;;;7.18;100.00
69257;BME280;56376;53.356;-1.748;2023-04-01T20:10:41;99609.28;;;7.14;100.00
69257;BME280;56376;53.356;-1.748;2023-04-01T20:16:09;99627.53;;;7.11;100.00
69257;BME280;56376;53.356;-1.748;2023-04-01T20:18:52;99632.75;;;7.11;100.00
69257;BME280;56376;53.356;-1.748;2023-04-01T20:21:34;99635.34;;;7.11;100.00
69257;BME280;56376;53.356;-1.748;2023-04-01T20:26:43;99647.72;;;6.97;100.00
69257;BME280;56376;53.356;-1.748;2023-04-01T20:32:06;99653.75;;;6.99;100.00
69257;BME280;56376;53.356;-1.748;2023-04-01T20:40:17;99666.69;;;7.00;100.00
69257;BME280;56376;53.356;-1.748;2023-04-01T20:45:55;99671.13;;;6.95;100.00
69257;BME280;56376;53.356;-1.748;2023-04-01T20:51:14;99685.84;;;6.94;100.00
69257;BME280;56376;53.356;-1.748;2023-04-01T20:53:50;99687.59;;;6.96;100.00
69257;BME280;56376;53.356;-1.748;2023-04-01T20:56:23;99688.53;;;6.90;100.00
69257;BME280;56376;53.356;-1.748;2023-04-01T21:02:07;99695.53;;;6.88;100.00
69257;BME280;56376;53.356;-1.748;2023-04-01T21:07:43;99715.41;;;6.87;100.00
69257;BME280;56376;53.356;-1.748;2023-04-01T21:12:52;99716.44;;;6.79;100.00
69257;BME280;56376;53.356;-1.748;2023-04-01T21:15:41;99726.84;;;6.79;100.00
69257;BME280;56376;53.356;-1.748;2023-04-01T21:37:41;99745.00;;;6.79;100.00
69257;BME280;56376;53.356;-1.748;2023-04-01T22:07:29;99789.16;;;6.77;100.00
69257;BME280;56376;53.356;-1.748;2023-04-01T22:12:45;99790.91;;;6.78;100.00
69257;BME280;56376;53.356;-1.748;2023-04-01T22:15:45;99790.06;;;6.76;100.00
69257;BME280;56376;53.356;-1.748;2023-04-01T22:18:19;99798.72;;;6.75;100.00
69257;BME280;56376;53.356;-1.748;2023-04-01T22:21:03;99800.50;;;6.73;100.00
69257;BME280;56376;53.356;-1.748;2023-04-01T22:23:44;99803.97;;;6.72;100.00
69257;BME280;56376;53.356;-1.748;2023-04-01T22:26:17;99810.97;;;6.67;100.00
69257;BME280;56376;53.356;-1.748;2023-04-01T22:31:22;99824.00;;;6.62;100.00
69257;BME280;56376;53.356;-1.748;2023-04-01T22:36:19;99834.31;;;6.67;100.00
69257;BME280;56376;53.356;-1.748;2023-04-01T22:44:28;99857.69;;;6.67;100.00
69257;BME280;56376;53.356;-1.748;2023-04-01T22:55:50;99864.69;;;6.62;100.00
69257;BME280;56376;53.356;-1.748;2023-04-01T22:58:23;99865.53;;;6.64;100.00
69257;BME280;56376;53.356;-1.748;2023-04-01T23:00:58;99875.00;;;6.65;100.00
69257;BME280;56376;53.356;-1.748;2023-04-01T23:03:28;99871.53;;;6.67;100.00
69257;BME280;56376;53.356;-1.748;2023-04-01T23:05:57;99870.66;;;6.67;100.00
69257;BME280;56376;53.356;-1.748;2023-04-01T23:11:32;99885.31;;;6.71;100.00
69257;BME280;56376;53.356;-1.748;2023-04-01T23:16:38;99881.91;;;6.69;100.00
69257;BME280;56376;53.356;-1.748;2023-04-01T23:25:17;99900.06;;;6.67;100.00
69257;BME280;56376;53.356;-1.748;2023-04-01T23:27:45;99900.06;;;6.67;100.00
69257;BME280;56376;53.356;-1.748;2023-04-01T23:36:13;99913.22;;;6.57;100.00
69257;BME280;56376;53.356;-1.748;2023-04-01T23:38:41;99913.31;;;6.49;100.00